createdAt,value
2023-08-10T00:00:15.878Z,100307.09
2023-08-10T00:02:44.094Z,100298.28
2023-08-10T00:05:12.807Z,100304.00
2023-08-10T00:07:41.909Z,100299.28
2023-08-10T00:10:10.066Z,100299.91
2023-08-10T00:12:38.741Z,100300.94
2023-08-10T00:15:06.909Z,100301.78
2023-08-10T00:17:34.832Z,100299.53
2023-08-10T00:20:06.342Z,100291.53
2023-08-10T00:22:34.277Z,100306.94
2023-08-10T00:25:03.865Z,100302.22
2023-08-10T00:27:31.522Z,100300.53
2023-08-10T00:30:01.658Z,100299.13
2023-08-10T00:32:29.720Z,100294.22
2023-08-10T00:34:57.490Z,100300.78
2023-08-10T00:37:25.655Z,100300.78
2023-08-10T00:39:53.274Z,100292.38
2023-08-10T00:42:22.350Z,100293.97
2023-08-10T00:44:50.581Z,100301.38
2023-08-10T00:47:18.260Z,100300.16
2023-08-10T00:49:46.120Z,100299.94
2023-08-10T00:52:13.953Z,100300.34
2023-08-10T00:54:41.865Z,100304.84
2023-08-10T00:57:09.566Z,100301.56
2023-08-10T00:59:40.149Z,100297.47
2023-08-10T01:02:08.906Z,100298.88
2023-08-10T01:04:36.861Z,100305.69
2023-08-10T01:07:10.833Z,100301.38
2023-08-10T01:09:44.269Z,100304.06
2023-08-10T01:12:22.630Z,100304.66
2023-08-10T01:14:59.495Z,100307.94
2023-08-10T01:17:31.551Z,100311.84
2023-08-10T01:20:04.758Z,100304.06
2023-08-10T01:22:47.112Z,100307.31
2023-08-10T01:25:17.720Z,100307.53
2023-08-10T01:27:47.152Z,100314.31
2023-08-10T01:30:15.816Z,100313.91
2023-08-10T01:32:43.981Z,100314.56
2023-08-10T01:35:12.380Z,100318.41
2023-08-10T01:37:40.781Z,100311.88
2023-08-10T01:40:10.594Z,100317.59
2023-08-10T01:42:39.625Z,100318.19
2023-08-10T01:45:09.083Z,100324.34
2023-08-10T01:47:41.466Z,100320.25
2023-08-10T01:50:10.931Z,100329.09
2023-08-10T01:52:43.554Z,100336.91
2023-08-10T01:55:12.184Z,100329.28
2023-08-10T01:57:41.543Z,100335.47
2023-08-10T02:00:12.158Z,100334.88
2023-08-10T02:02:48.178Z,100336.06
2023-08-10T02:05:16.109Z,100332.19
2023-08-10T02:07:49.663Z,100328.28
2023-08-10T02:10:17.945Z,100323.34
2023-08-10T02:12:46.969Z,100316.34
2023-08-10T02:15:14.737Z,100308.56
2023-08-10T02:17:42.813Z,100325.63
2023-08-10T02:20:13.969Z,100328.66
2023-08-10T02:22:44.039Z,100331.13
2023-08-10T02:25:11.981Z,100333.00
2023-08-10T02:27:40.897Z,100324.97
2023-08-10T02:30:11.397Z,100330.13
2023-08-10T02:32:39.876Z,100329.69
2023-08-10T02:35:10.150Z,100335.84
2023-08-10T02:37:38.717Z,100330.72
2023-08-10T02:40:07.896Z,100333.97
2023-08-10T02:42:35.876Z,100332.13
2023-08-10T02:45:04.498Z,100324.91
2023-08-10T02:47:35.047Z,100327.81
2023-08-10T02:50:03.537Z,100319.00
2023-08-10T02:52:31.182Z,100324.16
2023-08-10T02:54:59.421Z,100319.84
2023-08-10T02:57:27.137Z,100316.56
2023-08-10T02:59:54.860Z,100318.63
2023-08-10T03:02:22.989Z,100313.91
2023-08-10T03:04:52.199Z,100315.56
2023-08-10T03:07:20.181Z,100316.97
2023-08-10T03:09:48.534Z,100320.88
2023-08-10T03:12:22.347Z,100314.09
2023-08-10T03:14:50.594Z,100316.59
2023-08-10T03:17:19.161Z,100306.94
2023-08-10T03:19:47.202Z,100315.97
2023-08-10T03:22:16.724Z,100317.63
2023-08-10T03:24:44.437Z,100323.16
2023-08-10T03:27:12.099Z,100327.47
2023-08-10T03:29:39.900Z,100332.78
2023-08-10T03:32:08.620Z,100329.50
2023-08-10T03:34:36.628Z,100335.25
2023-08-10T03:37:05.148Z,100324.75
2023-08-10T03:39:35.237Z,100329.28
2023-08-10T03:42:03.615Z,100334.00
2023-08-10T03:44:31.656Z,100336.06
2023-08-10T03:46:59.572Z,100339.34
2023-08-10T03:49:27.283Z,100339.13
2023-08-10T03:51:56.045Z,100343.22
2023-08-10T03:54:23.819Z,100334.00
2023-08-10T03:56:53.098Z,100341.16
2023-08-10T03:59:21.635Z,100338.28
2023-08-10T04:01:52.948Z,100337.66
2023-08-10T04:04:20.598Z,100335.00
2023-08-10T04:06:48.348Z,100339.72
2023-08-10T04:09:15.965Z,100333.38
2023-08-10T04:11:43.656Z,100335.22
2023-08-10T04:14:13.491Z,100325.78
2023-08-10T04:16:41.250Z,100328.25
2023-08-10T04:19:09.403Z,100334.59
2023-08-10T04:21:37.114Z,100335.25
2023-08-10T04:24:05.868Z,100334.59
2023-08-10T04:26:33.594Z,100337.09
2023-08-10T04:29:01.716Z,100357.03
2023-08-10T04:31:30.723Z,100352.94
2023-08-10T04:33:58.350Z,100370.78
2023-08-10T04:36:26.246Z,100363.63
2023-08-10T04:38:54.996Z,100367.50
2023-08-10T04:41:22.825Z,100377.16
2023-08-10T04:43:50.791Z,100376.94
2023-08-10T04:46:18.554Z,100372.00
2023-08-10T04:48:47.658Z,100378.16
2023-08-10T04:51:15.333Z,100373.03
2023-08-10T04:53:43.021Z,100370.34
2023-08-10T04:56:10.701Z,100371.56
2023-08-10T04:58:38.647Z,100376.25
2023-08-10T05:01:06.392Z,100376.66
2023-08-10T05:03:34.740Z,100368.81
2023-08-10T05:06:04.310Z,100367.97
2023-08-10T05:08:32.816Z,100372.03
2023-08-10T05:11:02.261Z,100375.69
2023-08-10T05:13:30.053Z,100382.59
2023-08-10T05:15:58.094Z,100372.47
2023-08-10T05:18:25.902Z,100377.16
2023-08-10T05:20:53.566Z,100377.50
2023-08-10T05:23:22.563Z,100377.50
2023-08-10T05:25:50.211Z,100374.81
2023-08-10T05:28:18.391Z,100378.56
2023-08-10T05:30:46.101Z,100381.13
2023-08-10T05:33:13.992Z,100381.13
2023-08-10T05:35:42.076Z,100390.50
2023-08-10T05:38:10.358Z,100391.25
2023-08-10T05:40:39.722Z,100401.50
2023-08-10T05:43:07.651Z,100401.06
2023-08-10T05:45:35.395Z,100400.94
2023-08-10T05:48:03.175Z,100399.09
2023-08-10T05:50:30.951Z,100412.84
2023-08-10T05:52:58.609Z,100408.22
2023-08-10T05:55:26.546Z,100406.03
2023-08-10T05:57:55.535Z,100409.31
2023-08-10T06:00:23.512Z,100403.44
2023-08-10T06:02:52.415Z,100408.09
2023-08-10T06:05:21.258Z,100400.75
2023-08-10T06:07:49.197Z,100412.47
2023-08-10T06:10:17.710Z,100418.50
2023-08-10T06:12:45.485Z,100414.13
2023-08-10T06:15:14.635Z,100416.06
2023-08-10T06:17:43.246Z,100416.72
2023-08-10T06:20:17.870Z,100418.69
2023-08-10T06:22:46.166Z,100423.41
2023-08-10T06:25:14.939Z,100423.50
2023-08-10T06:27:43.290Z,100419.34
2023-08-10T06:30:11.951Z,100418.63
2023-08-10T06:32:41.180Z,100430.75
2023-08-10T06:35:11.148Z,100429.47
2023-08-10T06:37:39.244Z,100435.59
2023-08-10T06:40:10.089Z,100442.16
2023-08-10T06:42:38.700Z,100439.91
2023-08-10T06:45:14.371Z,100441.78
2023-08-10T06:47:44.657Z,100398.75
2023-08-10T06:50:13.537Z,100436.31
2023-08-10T06:52:42.742Z,100440.63
2023-08-10T06:55:12.822Z,100431.06
2023-08-10T06:57:42.101Z,100435.88
2023-08-10T07:02:46.917Z,100431.75
2023-08-10T07:05:15.106Z,100437.75
2023-08-10T07:07:42.817Z,100439.94
2023-08-10T07:10:10.908Z,100442.06
2023-08-10T07:12:38.852Z,100445.44
2023-08-10T07:15:08.493Z,100440.97
2023-08-10T07:17:36.537Z,100448.94
2023-08-10T07:20:07.430Z,100430.03
2023-08-10T07:22:39.680Z,100445.78
2023-08-10T07:25:08.682Z,100442.34
2023-08-10T07:27:37.244Z,100440.09
2023-08-10T07:30:05.834Z,100448.94
2023-08-10T07:32:33.589Z,100446.47
2023-08-10T07:35:01.286Z,100448.91
2023-08-10T07:37:30.710Z,100458.13
2023-08-10T07:39:58.454Z,100466.75
2023-08-10T07:42:26.356Z,100452.84
2023-08-10T07:44:54.173Z,100455.41
2023-08-10T07:47:22.286Z,100457.16
2023-08-10T07:49:50.044Z,100459.56
2023-08-10T07:52:17.748Z,100447.22
2023-08-10T07:54:47.041Z,100465.84
2023-08-10T07:57:14.735Z,100463.97
2023-08-10T07:59:43.479Z,100466.31
2023-08-10T08:02:11.305Z,100462.53
2023-08-10T08:04:39.176Z,100451.16
2023-08-10T08:07:06.986Z,100454.16
2023-08-10T08:09:35.033Z,100459.44
2023-08-10T08:12:04.713Z,100443.75
2023-08-10T08:14:32.810Z,100441.81
2023-08-10T08:17:00.454Z,100439.56
2023-08-10T08:19:28.270Z,100446.31
2023-08-10T08:21:56.003Z,100452.16
2023-08-10T08:24:23.637Z,100451.38
2023-08-10T08:26:51.652Z,100446.63
2023-08-10T08:29:20.663Z,100438.50
2023-08-10T08:31:48.470Z,100419.25
2023-08-10T08:34:16.518Z,100440.00
2023-08-10T08:36:45.868Z,100431.31
2023-08-10T08:39:13.945Z,100433.16
2023-08-10T08:41:41.827Z,100432.22
2023-08-10T08:44:10.688Z,100439.81
2023-08-10T08:46:41.916Z,100449.28
2023-08-10T08:49:09.984Z,100447.88
2023-08-10T08:51:38.275Z,100451.53
2023-08-10T08:54:06.686Z,100448.03
2023-08-10T08:56:34.384Z,100445.34
2023-08-10T08:59:02.101Z,100443.38
2023-08-10T09:01:31.362Z,100442.91
2023-08-10T09:04:01.439Z,100442.31
2023-08-10T09:06:29.292Z,100443.38
2023-08-10T09:08:57.035Z,100432.53
2023-08-10T09:11:24.976Z,100438.00
2023-08-10T09:14:09.342Z,100430.09
2023-08-10T09:16:39.327Z,100417.88
2023-08-10T09:19:12.712Z,100424.88
2023-08-10T09:21:40.971Z,100402.97
2023-08-10T09:24:11.615Z,100420.06
2023-08-10T09:26:41.028Z,100420.06
2023-08-10T09:29:09.448Z,100417.06
2023-08-10T09:31:37.285Z,100405.94
2023-08-10T09:34:12.164Z,100419.50
2023-08-10T09:36:41.144Z,100425.47
2023-08-10T09:39:18.109Z,100417.91
2023-08-10T09:41:45.756Z,100412.50
2023-08-10T09:44:14.052Z,100413.56
2023-08-10T09:46:41.947Z,100407.34
2023-08-10T09:49:10.239Z,100394.84
2023-08-10T09:51:41.871Z,100399.16
2023-08-10T09:54:10.187Z,100396.47
2023-08-10T09:56:38.165Z,100395.66
2023-08-10T09:59:06.197Z,100400.00
2023-08-10T10:01:34.420Z,100398.34
2023-08-10T10:04:02.648Z,100397.22
2023-08-10T10:06:31.324Z,100397.81
2023-08-10T10:09:04.706Z,100396.91
2023-08-10T10:11:34.055Z,100393.38
2023-08-10T10:14:03.167Z,100393.63
2023-08-10T10:16:33.415Z,100394.53
2023-08-10T10:19:02.361Z,100400.31
2023-08-10T10:21:30.636Z,100397.09
2023-08-10T10:24:04.866Z,100386.78
2023-08-10T10:26:32.603Z,100387.81
2023-08-10T10:29:11.389Z,100382.38
2023-08-10T10:31:39.302Z,100379.94
2023-08-10T10:34:07.336Z,100378.56
2023-08-10T10:36:34.983Z,100385.91
2023-08-10T10:39:09.846Z,100382.38
2023-08-10T10:41:38.385Z,100372.50
2023-08-10T10:44:10.642Z,100374.97
2023-08-10T10:46:40.013Z,100374.09
2023-08-10T10:49:10.391Z,100364.00
2023-08-10T10:51:45.769Z,100361.59
2023-08-10T10:54:15.445Z,100362.97
2023-08-10T10:56:43.694Z,100356.09
2023-08-10T10:59:11.320Z,100353.78
2023-08-10T11:01:39.292Z,100355.06
2023-08-10T11:04:07.954Z,100357.53
2023-08-10T11:06:39.190Z,100344.38
2023-08-10T11:09:09.059Z,100349.13
2023-08-10T11:11:38.800Z,100348.97
2023-08-10T11:14:07.009Z,100344.34
2023-08-10T11:16:42.515Z,100342.72
2023-08-10T11:19:12.788Z,100334.47
2023-08-10T11:21:43.547Z,100332.00
2023-08-10T11:24:11.259Z,100325.13
2023-08-10T11:26:40.681Z,100325.69
2023-08-10T11:29:08.480Z,100326.16
2023-08-10T11:31:43.832Z,100313.38
2023-08-10T11:34:23.616Z,100324.75
2023-08-10T11:36:52.906Z,100316.13
2023-08-10T11:39:21.813Z,100313.19
2023-08-10T11:41:51.234Z,100324.91
2023-08-10T11:44:27.177Z,100322.88
2023-08-10T11:46:58.830Z,100320.69
2023-08-10T11:49:31.283Z,100325.50
2023-08-10T11:52:01.338Z,100314.97
2023-08-10T11:54:30.871Z,100332.41
2023-08-10T11:57:00.645Z,100324.28
2023-08-10T11:59:36.352Z,100326.16
2023-08-10T12:02:06.208Z,100323.03
2023-08-10T12:04:37.448Z,100314.81
2023-08-10T12:07:06.340Z,100318.28
2023-08-10T12:09:34.434Z,100319.47
2023-08-10T12:12:05.114Z,100320.34
2023-08-10T12:14:33.269Z,100323.66
2023-08-10T12:17:01.152Z,100324.25
2023-08-10T12:19:30.238Z,100310.53
2023-08-10T12:22:06.698Z,100313.88
2023-08-10T12:24:34.723Z,100317.31
2023-08-10T12:27:04.370Z,100323.22
2023-08-10T12:29:32.680Z,100324.19
2023-08-10T12:32:01.816Z,100329.69
2023-08-10T12:34:29.512Z,100328.97
2023-08-10T12:36:57.765Z,100329.13
2023-08-10T12:39:27.806Z,100322.69
2023-08-10T12:41:55.520Z,100324.63
2023-08-10T12:44:24.701Z,100321.81
2023-08-10T12:46:53.212Z,100318.00
2023-08-10T12:49:21.163Z,100316.34
2023-08-10T12:51:48.860Z,100318.28
2023-08-10T12:54:16.735Z,100315.50
2023-08-10T12:56:44.459Z,100310.75
2023-08-10T12:59:12.240Z,100312.66
2023-08-10T13:01:42.505Z,100321.81
2023-08-10T13:04:10.251Z,100311.16
2023-08-10T13:06:38.533Z,100307.03
2023-08-10T13:09:06.478Z,100311.50
2023-08-10T13:11:35.573Z,100322.69
2023-08-10T13:14:03.361Z,100322.22
2023-08-10T13:16:31.189Z,100321.84
2023-08-10T13:19:00.760Z,100322.88
2023-08-10T13:21:28.599Z,100330.38
2023-08-10T13:23:56.535Z,100330.81
2023-08-10T13:26:24.274Z,100328.25
2023-08-10T13:28:52.169Z,100330.97
2023-08-10T13:31:19.956Z,100329.06
2023-08-10T13:33:47.786Z,100330.16
2023-08-10T13:36:17.234Z,100321.69
2023-08-10T13:38:44.991Z,100322.22
2023-08-10T13:41:12.862Z,100318.66
2023-08-10T13:43:41.192Z,100314.69
2023-08-10T13:46:09.012Z,100323.63
2023-08-10T13:48:37.328Z,100303.22
2023-08-10T13:51:05.123Z,100318.53
2023-08-10T13:53:34.445Z,100307.22
2023-08-10T13:56:02.234Z,100304.25
2023-08-10T13:58:29.985Z,100303.38
2023-08-10T14:00:57.933Z,100309.19
2023-08-10T14:03:25.655Z,100307.31
2023-08-10T14:05:53.517Z,100299.84
2023-08-10T14:08:21.340Z,100299.84
2023-08-10T14:10:50.325Z,100296.97
2023-08-10T14:13:18.799Z,100294.25
2023-08-10T14:15:46.502Z,100308.13
2023-08-10T14:18:14.177Z,100298.53
2023-08-10T14:20:42.150Z,100285.16
2023-08-10T14:23:10.541Z,100287.88
2023-08-10T14:25:38.810Z,100291.28
2023-08-10T14:28:08.137Z,100290.13
2023-08-10T14:30:36.272Z,100286.31
2023-08-10T14:33:04.308Z,100283.44
2023-08-10T14:35:32.036Z,100288.69
2023-08-10T14:38:02.127Z,100290.34
2023-08-10T14:40:29.916Z,100298.44
2023-08-10T14:42:58.226Z,100287.78
2023-08-10T14:45:27.505Z,100288.34
2023-08-10T14:48:00.947Z,100289.47
2023-08-10T14:50:30.031Z,100289.06
2023-08-10T14:52:57.702Z,100284.25
2023-08-10T14:55:25.874Z,100286.66
2023-08-10T14:57:53.576Z,100279.00
2023-08-10T15:00:22.200Z,100270.75
2023-08-10T15:02:51.515Z,100273.19
2023-08-10T15:05:20.486Z,100266.94
2023-08-10T15:07:48.289Z,100274.91
2023-08-10T15:10:16.533Z,100272.47
2023-08-10T15:12:44.186Z,100270.47
2023-08-10T15:15:12.484Z,100262.06
2023-08-10T15:17:40.749Z,100239.09
2023-08-10T15:20:13.354Z,100266.09
2023-08-10T15:22:41.398Z,100263.56
2023-08-10T15:25:10.537Z,100257.16
2023-08-10T15:27:40.653Z,100252.38
2023-08-10T15:30:09.869Z,100256.56
2023-08-10T15:32:37.851Z,100250.00
2023-08-10T15:35:06.279Z,100256.81
2023-08-10T15:37:35.637Z,100260.13
2023-08-10T15:40:05.408Z,100265.28
2023-08-10T15:42:33.117Z,100255.66
2023-08-10T15:45:01.080Z,100263.66
2023-08-10T15:47:28.772Z,100258.16
2023-08-10T15:49:56.453Z,100258.81
2023-08-10T15:52:24.570Z,100259.78
2023-08-10T15:54:54.115Z,100253.69
2023-08-10T15:57:22.065Z,100258.09
2023-08-10T15:59:49.731Z,100256.16
2023-08-10T16:02:20.674Z,100253.84
2023-08-10T16:04:49.641Z,100254.44
2023-08-10T16:07:17.352Z,100254.16
2023-08-10T16:09:45.340Z,100246.59
2023-08-10T16:12:14.357Z,100261.84
2023-08-10T16:14:42.307Z,100251.22
2023-08-10T16:17:09.944Z,100245.38
2023-08-10T16:19:37.596Z,100247.16
2023-08-10T16:22:05.831Z,100250.56
2023-08-10T16:24:33.748Z,100255.94
2023-08-10T16:27:02.249Z,100253.06
2023-08-10T16:29:31.565Z,100252.25
2023-08-10T16:32:00.223Z,100248.38
2023-08-10T16:34:29.192Z,100249.66
2023-08-10T16:36:56.856Z,100242.28
2023-08-10T16:39:24.696Z,100252.13
2023-08-10T16:41:52.368Z,100263.38
2023-08-10T16:44:20.009Z,100258.59
2023-08-10T16:46:49.322Z,100246.50
2023-08-10T16:49:16.944Z,100257.09
2023-08-10T16:51:44.669Z,100261.56
2023-08-10T16:54:12.453Z,100261.31
2023-08-10T16:56:40.168Z,100257.22
2023-08-10T16:59:08.044Z,100268.78
2023-08-10T17:01:35.868Z,100266.69
2023-08-10T17:04:06.137Z,100257.00
2023-08-10T17:06:33.863Z,100263.06
2023-08-10T17:09:01.608Z,100258.63
2023-08-10T17:11:29.388Z,100263.59
2023-08-10T17:13:57.002Z,100266.88
2023-08-10T17:16:26.258Z,100269.19
2023-08-10T17:18:54.773Z,100262.72
2023-08-10T17:21:23.851Z,100264.50
2023-08-10T17:23:51.658Z,100267.44
2023-08-10T17:26:19.530Z,100269.19
2023-08-10T17:28:47.274Z,100265.50
2023-08-10T17:31:15.591Z,100267.81
2023-08-10T17:33:43.948Z,100260.84
2023-08-10T17:36:11.711Z,100257.59
2023-08-10T17:38:41.185Z,100258.97
2023-08-10T17:41:09.218Z,100255.19
2023-08-10T17:43:36.972Z,100257.88
2023-08-10T17:46:04.872Z,100257.53
2023-08-10T17:48:32.581Z,100253.94
2023-08-10T17:51:00.385Z,100259.84
2023-08-10T17:53:28.340Z,100263.59
2023-08-10T17:55:57.553Z,100249.34
2023-08-10T17:58:25.675Z,100260.13
2023-08-10T18:00:53.401Z,100253.56
2023-08-10T18:03:21.184Z,100256.63
2023-08-10T18:05:48.876Z,100249.00
2023-08-10T18:08:16.534Z,100255.38
2023-08-10T18:10:44.568Z,100263.63
2023-08-10T18:13:13.586Z,100261.91
2023-08-10T18:15:41.259Z,100253.34
2023-08-10T18:18:09.397Z,100229.34
2023-08-10T18:20:37.134Z,100254.09
2023-08-10T18:23:05.233Z,100243.25
2023-08-10T18:25:32.931Z,100250.56
2023-08-10T18:28:01.947Z,100252.59
2023-08-10T18:30:30.961Z,100247.50
2023-08-10T18:32:58.687Z,100253.84
2023-08-10T18:35:26.549Z,100259.69
2023-08-10T18:37:54.213Z,100253.22
2023-08-10T18:40:21.923Z,100256.81
2023-08-10T18:42:49.616Z,100257.38
2023-08-10T18:45:17.413Z,100259.81
2023-08-10T18:47:46.445Z,100263.03
2023-08-10T18:50:14.337Z,100276.19
2023-08-10T18:52:42.244Z,100267.53
2023-08-10T18:55:10.941Z,100271.03
2023-08-10T18:57:39.672Z,100267.31
2023-08-10T19:00:09.199Z,100279.69
2023-08-10T19:02:36.973Z,100277.03
2023-08-10T19:05:07.021Z,100281.41
2023-08-10T19:07:34.679Z,100280.63
2023-08-10T19:10:02.410Z,100286.34
2023-08-10T19:12:30.160Z,100282.31
2023-08-10T19:14:57.792Z,100287.13
2023-08-10T19:17:25.757Z,100299.53
2023-08-10T19:19:53.433Z,100298.50
2023-08-10T19:22:22.557Z,100298.50
2023-08-10T19:24:50.744Z,100307.69
2023-08-10T19:27:21.951Z,100300.31
2023-08-10T19:29:49.621Z,100303.47
2023-08-10T19:32:17.837Z,100304.44
2023-08-10T19:34:45.591Z,100303.84
2023-08-10T19:37:13.501Z,100310.50
2023-08-10T19:39:42.582Z,100314.59
2023-08-10T19:42:10.356Z,100311.88
2023-08-10T19:44:38.480Z,100321.13
2023-08-10T19:47:06.761Z,100313.59
2023-08-10T19:49:34.911Z,100312.88
2023-08-10T19:52:04.162Z,100315.63
2023-08-10T19:54:32.460Z,100313.75
2023-08-10T19:57:01.711Z,100316.69
2023-08-10T19:59:29.300Z,100317.41
2023-08-10T20:01:57.573Z,100326.88
2023-08-10T20:04:25.300Z,100323.38
2023-08-10T20:06:53.617Z,100321.59
2023-08-10T20:09:22.070Z,100326.41
2023-08-10T20:11:49.855Z,100324.19
2023-08-10T20:14:19.334Z,100331.09
2023-08-10T20:16:47.452Z,100324.66
2023-08-10T20:19:15.191Z,100327.16
2023-08-10T20:21:42.965Z,100335.22
2023-08-10T20:24:10.696Z,100333.47
2023-08-10T20:26:39.548Z,100331.75
2023-08-10T20:29:07.506Z,100329.06
2023-08-10T20:31:36.717Z,100328.03
2023-08-10T20:34:04.682Z,100332.75
2023-08-10T20:36:32.945Z,100335.22
2023-08-10T20:39:00.721Z,100331.88
2023-08-10T20:41:28.874Z,100329.66
2023-08-10T20:43:57.253Z,100336.34
2023-08-10T20:46:26.763Z,100335.34
2023-08-10T20:48:56.238Z,100341.31
2023-08-10T20:51:24.548Z,100347.03
2023-08-10T20:53:53.551Z,100344.13
2023-08-10T20:56:22.207Z,100328.84
2023-08-10T20:58:52.206Z,100351.66
2023-08-10T21:01:20.108Z,100348.81
2023-08-10T21:03:48.371Z,100331.38
2023-08-10T21:06:17.381Z,100335.81
2023-08-10T21:08:47.465Z,100340.16
2023-08-10T21:11:15.094Z,100339.94
2023-08-10T21:13:42.868Z,100341.72
2023-08-10T21:16:11.788Z,100284.03
2023-08-10T21:18:39.572Z,100343.81
2023-08-10T21:21:07.562Z,100349.94
2023-08-10T21:23:37.025Z,100337.31
2023-08-10T21:26:04.837Z,100351.19
2023-08-10T21:28:32.578Z,100354.91
2023-08-10T21:31:00.342Z,100350.28
2023-08-10T21:33:28.077Z,100348.06
2023-08-10T21:35:55.834Z,100351.78
2023-08-10T21:38:23.470Z,100348.06
2023-08-10T21:40:52.496Z,100354.13
2023-08-10T21:43:20.389Z,100350.72
2023-08-10T21:45:48.007Z,100356.44
2023-08-10T21:48:15.886Z,100359.59
2023-08-10T21:50:43.870Z,100360.94
2023-08-10T21:53:11.544Z,100355.59
2023-08-10T21:55:39.186Z,100359.13
2023-08-10T21:58:08.251Z,100363.56
2023-08-10T22:00:36.033Z,100363.63
2023-08-10T22:03:04.063Z,100362.56
2023-08-10T22:05:31.828Z,100361.66
2023-08-10T22:08:00.146Z,100369.00
2023-08-10T22:10:27.843Z,100364.50
2023-08-10T22:12:55.701Z,100363.22
2023-08-10T22:15:25.418Z,100353.03
2023-08-10T22:17:53.076Z,100355.16
2023-08-10T22:20:20.804Z,100356.00
2023-08-10T22:22:58.289Z,100352.47
2023-08-10T22:25:32.464Z,100353.03
2023-08-10T22:28:01.660Z,100345.91
2023-08-10T22:30:30.695Z,100344.88
2023-08-10T22:32:59.358Z,100349.66
2023-08-10T22:35:27.129Z,100361.03
2023-08-10T22:37:54.825Z,100354.34
2023-08-10T22:40:22.825Z,100359.38
2023-08-10T22:42:50.535Z,100350.25
2023-08-10T22:45:18.637Z,100349.06
2023-08-10T22:47:47.672Z,100349.44
2023-08-10T22:50:15.443Z,100346.06
2023-08-10T22:52:43.349Z,100346.88
2023-08-10T22:55:12.035Z,100345.91
2023-08-10T22:57:40.345Z,100351.41
2023-08-10T23:00:11.027Z,100355.16
2023-08-10T23:02:38.892Z,100349.50
2023-08-10T23:05:09.094Z,100347.28
2023-08-10T23:07:37.619Z,100355.59
2023-08-10T23:10:06.384Z,100361.59
2023-08-10T23:12:34.113Z,100365.59
2023-08-10T23:15:02.167Z,100366.75
2023-08-10T23:17:30.371Z,100368.47
2023-08-10T23:19:58.571Z,100366.88
2023-08-10T23:22:27.981Z,100366.63
2023-08-10T23:24:55.625Z,100369.50
2023-08-10T23:27:23.578Z,100370.13
2023-08-10T23:29:51.236Z,100366.31
2023-08-10T23:32:19.151Z,100365.59
2023-08-10T23:34:46.781Z,100378.13
2023-08-10T23:37:15.052Z,100364.53
2023-08-10T23:39:44.240Z,100361.78
2023-08-10T23:42:12.153Z,100360.59
2023-08-10T23:44:39.842Z,100356.34
2023-08-10T23:47:16.303Z,100351.91
2023-08-10T23:49:45.071Z,100355.63
2023-08-10T23:52:13.012Z,100359.19
2023-08-10T23:54:40.695Z,100346.81
2023-08-10T23:57:10.341Z,100351.75
2023-08-10T23:59:41.186Z,100344.28
